This is the latest recevied weather packets stored in our database for station/object SP1BMW-13. If no packets are shown the sender has not sent any weather packets the latest 10 day(s).
| Time | Temp. | Humidity | Pressure | Rain* | Wind** | Luminosity | Snow |
|---|---|---|---|---|---|---|---|
| 1777157146 | 5.56° C | 81% | 1012.5 hPa | 0.25 mm | 0.89 m/s, 297° | 0 W/m² | - |
| 1777157086 | 5.56° C | 81% | 1012.5 hPa | 0.25 mm | 0.89 m/s, 249° | 0 W/m² | - |
| 1777157026 | 5.56° C | 81% | 1012.6 hPa | 0.25 mm | 0.45 m/s, 316° | 0 W/m² | - |
| 1777156966 | 5.56° C | 81% | 1012.6 hPa | 0.25 mm | 0.45 m/s, 331° | 0 W/m² | - |
| 1777156905 | 5.56° C | 81% | 1012.6 hPa | 0.25 mm | 1.34 m/s, 298° | 0 W/m² | - |
| 1777156846 | 5.56° C | 81% | 1012.6 hPa | 0.25 mm | 1.34 m/s, 301° | 0 W/m² | - |
| 1777156786 | 5.56° C | 81% | 1012.5 hPa | 0.25 mm | 0.89 m/s, 308° | 0 W/m² | - |
| 1777156726 | 5.56° C | 81% | 1012.6 hPa | 0.25 mm | 2.24 m/s, 278° | 0 W/m² | - |
| 1777156666 | 5.56° C | 80% | 1012.5 hPa | 0.25 mm | 0.89 m/s, 281° | 0 W/m² | - |
| 1777156606 | 5.56° C | 80% | 1012.5 hPa | 0.25 mm | 0.89 m/s, 294° | 0 W/m² | - |
| 1777156546 | 5.56° C | 80% | 1012.5 hPa | 0.25 mm | 2.24 m/s, 302° | 0 W/m² | - |
| 1777156486 | 5.56° C | 81% | 1012.5 hPa | 0.25 mm | 1.79 m/s, 227° | 0 W/m² | - |
| 1777156425 | 5.56° C | 81% | 1012.5 hPa | 0.25 mm | 1.79 m/s, 270° | 0 W/m² | - |
| 1777156366 | 5.56° C | 81% | 1012.5 hPa | 0.25 mm | 1.79 m/s, 310° | 0 W/m² | - |
| 1777156306 | 5.56° C | 81% | 1012.5 hPa | 0.25 mm | 1.79 m/s, 264° | 0 W/m² | - |
| 1777156246 | 5.56° C | 81% | 1012.6 hPa | 0.25 mm | 1.79 m/s, 327° | 0 W/m² | - |
| 1777156186 | 5.56° C | 81% | 1012.4 hPa | 0.25 mm | 0.45 m/s, 220° | 0 W/m² | - |
| 1777156126 | 5.56° C | 81% | 1012.5 hPa | 0.25 mm | 4.02 m/s, 261° | 0 W/m² | - |
| 1777156066 | 5.56° C | 82% | 1012.2 hPa | 0.25 mm | 1.79 m/s, 297° | 0 W/m² | - |
| 1777156006 | 5.56° C | 82% | 1012.3 hPa | 0.25 mm | 0.45 m/s, 267° | 0 W/m² | - |
| 1777155946 | 5.56° C | 82% | 1012.5 hPa | 0.25 mm | 2.68 m/s, 271° | 0 W/m² | - |
| 1777155886 | 5.56° C | 81% | 1012.4 hPa | 0.25 mm | 1.79 m/s, 264° | 0 W/m² | - |
| 1777155825 | 5.56° C | 81% | 1012.2 hPa | 0.25 mm | 1.34 m/s, 242° | 0 W/m² | - |
| 1777155766 | 5.56° C | 81% | 1012.1 hPa | 0.25 mm | 1.79 m/s, 280° | 0 W/m² | - |
| 1777155706 | 5.56° C | 81% | 1012.3 hPa | 0.25 mm | 1.34 m/s, 283° | 0 W/m² | - |
* Rain latest hour (hover to see other rain measurements)
** Current wind speed in m/s (hover to see current wind gust speed)